Time;durP1;ratioP1;P1;durP2;ratioP2;P2;SDS_P1;SDS_P2;PMS_P1;PMS_P2;Temp;Humidity;BMP_temperature;BMP_pressure;BME280_temperature;BME280_humidity;BME280_pressure;Samples;Min_cycle;Max_cycle;Signal;HPM_P1;HPM_P2
2022/01/13 00:00:36;;;;;;;0.68;0.68;;;;;;;;;;4412498;32;20057;-51
2022/01/13 00:03:05;;;;;;;0.80;0.80;;;;;;;;;;4409608;32;20057;-52
2022/01/13 00:05:34;;;;;;;0.70;0.70;;;;;;;;;;4411774;32;20381;-50
2022/01/13 00:08:02;;;;;;;0.77;0.77;;;;;;;;;;4417430;32;20043;-50
2022/01/13 00:10:31;;;;;;;0.70;0.70;;;;;;;;;;4411198;32;20086;-49
2022/01/13 00:13:09;;;;;;;0.80;0.80;;;;;;;;;;4415639;32;20034;-51
2022/01/13 00:18:39;;;;;;;0.70;0.70;;;;;;;;;;4395931;32;20038;-53
2022/01/13 00:26:24;;;;;;;1.15;0.90;;;;;;;;;;4408332;32;20422;-51
2022/01/13 00:28:53;;;;;;;0.77;0.77;;;;;;;;;;4409755;32;20061;-49
2022/01/13 00:31:28;;;;;;;1.00;0.73;;;;;;;;;;4410288;32;20369;-53
2022/01/13 00:33:58;;;;;;;0.60;0.60;;;;;;;;;;4412921;32;20034;-53
2022/01/13 00:36:32;;;;;;;0.70;0.70;;;;;;;;;;4413408;32;20046;-50
2022/01/13 00:39:00;;;;;;;0.70;0.70;;;;;;;;;;4409786;32;20047;-53
2022/01/13 00:41:29;;;;;;;0.70;0.70;;;;;;;;;;4405975;32;20080;-50
2022/01/13 00:43:58;;;;;;;0.90;0.90;;;;;;;;;;4414313;32;20177;-50
2022/01/13 00:46:30;;;;;;;0.95;0.88;;;;;;;;;;4411052;32;20053;-49
2022/01/13 00:48:59;;;;;;;1.12;0.80;;;;;;;;;;4408165;32;20418;-53
2022/01/13 00:51:28;;;;;;;0.82;0.73;;;;;;;;;;4416173;32;20133;-51
2022/01/13 00:54:03;;;;;;;0.77;0.77;;;;;;;;;;4412449;32;20050;-50
2022/01/13 00:56:34;;;;;;;0.75;0.75;;;;;;;;;;4415180;32;20086;-50
2022/01/13 00:59:07;;;;;;;0.80;0.80;;;;;;;;;;4413156;32;20061;-50
2022/01/13 01:01:36;;;;;;;1.40;0.75;;;;;;;;;;4419748;32;20042;-51
2022/01/13 01:04:05;;;;;;;0.70;0.70;;;;;;;;;;4420517;32;20099;-51
2022/01/13 01:06:34;;;;;;;0.80;0.80;;;;;;;;;;4414235;32;20136;-50
2022/01/13 01:09:04;;;;;;;0.60;0.60;;;;;;;;;;4407702;32;20035;-52
2022/01/13 01:11:32;;;;;;;0.60;0.60;;;;;;;;;;4419366;32;20038;-50
2022/01/13 01:14:03;;;;;;;0.82;0.65;;;;;;;;;;4420781;32;20397;-50
2022/01/13 01:16:33;;;;;;;0.68;0.68;;;;;;;;;;4415844;32;20343;-49
2022/01/13 01:19:05;;;;;;;0.60;0.60;;;;;;;;;;4410928;32;20090;-50
2022/01/13 01:26:58;;;;;;;0.50;0.50;;;;;;;;;;4411001;32;20098;-52
2022/01/13 01:29:40;;;;;;;0.70;0.70;;;;;;;;;;4420735;32;20059;-48
2022/01/13 01:32:10;;;;;;;0.60;0.60;;;;;;;;;;4409926;32;20449;-49
2022/01/13 01:34:55;;;;;;;0.65;0.65;;;;;;;;;;4406208;32;20086;-52
2022/01/13 01:37:26;;;;;;;0.60;0.60;;;;;;;;;;4412605;32;20058;-50
2022/01/13 01:39:55;;;;;;;0.60;0.60;;;;;;;;;;4411327;32;20092;-51
2022/01/13 01:42:25;;;;;;;0.80;0.80;;;;;;;;;;4412895;32;20035;-50
2022/01/13 01:44:56;;;;;;;0.80;0.80;;;;;;;;;;4421783;32;20366;-51
2022/01/13 01:47:26;;;;;;;0.70;0.70;;;;;;;;;;4415552;32;20038;-49
2022/01/13 01:49:58;;;;;;;0.70;0.70;;;;;;;;;;4411053;32;20392;-50
2022/01/13 01:52:27;;;;;;;0.70;0.70;;;;;;;;;;4413249;32;20052;-52
2022/01/13 01:54:55;;;;;;;0.60;0.60;;;;;;;;;;4421448;32;20033;-50
2022/01/13 01:57:24;;;;;;;0.68;0.68;;;;;;;;;;4412265;32;20113;-50
2022/01/13 01:59:54;;;;;;;0.70;0.70;;;;;;;;;;4410378;32;20100;-51
2022/01/13 02:02:27;;;;;;;0.70;0.70;;;;;;;;;;4414304;32;20042;-50
2022/01/13 02:04:57;;;;;;;0.70;0.70;;;;;;;;;;4420786;32;20038;-50
2022/01/13 02:07:25;;;;;;;0.60;0.60;;;;;;;;;;4414936;32;20080;-49
2022/01/13 02:09:54;;;;;;;1.12;0.80;;;;;;;;;;4410497;32;20037;-49
2022/01/13 02:12:35;;;;;;;0.70;0.70;;;;;;;;;;4416129;32;20347;-50
2022/01/13 02:17:34;;;;;;;0.70;0.70;;;;;;;;;;4412563;32;20061;-53
2022/01/13 02:20:04;;;;;;;0.70;0.70;;;;;;;;;;4418413;32;20058;-52
2022/01/13 02:22:32;;;;;;;0.70;0.70;;;;;;;;;;4412154;32;20060;-51
2022/01/13 02:25:01;;;;;;;0.80;0.80;;;;;;;;;;4414814;32;20031;-51
2022/01/13 02:27:29;;;;;;;0.60;0.60;;;;;;;;;;4411556;32;20033;-51
2022/01/13 02:29:58;;;;;;;0.70;0.68;;;;;;;;;;4416335;32;20434;-50
2022/01/13 02:32:26;;;;;;;0.70;0.70;;;;;;;;;;4411087;32;20039;-50
2022/01/13 02:34:54;;;;;;;0.70;0.70;;;;;;;;;;4406515;32;20073;-49
2022/01/13 02:37:23;;;;;;;0.60;0.60;;;;;;;;;;4419600;32;20034;-50
2022/01/13 02:39:51;;;;;;;0.70;0.70;;;;;;;;;;4416230;32;20069;-50
2022/01/13 02:42:20;;;;;;;0.80;0.80;;;;;;;;;;4414725;32;20061;-50
2022/01/13 02:44:59;;;;;;;0.60;0.60;;;;;;;;;;4404326;32;20095;-53
2022/01/13 02:47:58;;;;;;;0.68;0.68;;;;;;;;;;4413427;32;20425;-49
2022/01/13 02:50:21;;;;;;;0.60;0.60;;;;;;;;;;4411407;32;20388;-49
2022/01/13 02:52:50;;;;;;;0.60;0.60;;;;;;;;;;4417631;32;20046;-51
2022/01/13 02:55:18;;;;;;;0.68;0.68;;;;;;;;;;4409317;32;20078;-49
2022/01/13 02:57:47;;;;;;;0.50;0.50;;;;;;;;;;4419189;32;20030;-49
2022/01/13 03:00:17;;;;;;;0.60;0.60;;;;;;;;;;4407082;32;20024;-50
2022/01/13 03:02:47;;;;;;;0.70;0.70;;;;;;;;;;4418285;32;20038;-50
2022/01/13 03:05:16;;;;;;;0.75;0.75;;;;;;;;;;4411155;32;20042;-49
2022/01/13 03:07:44;;;;;;;0.65;0.65;;;;;;;;;;4418357;32;20094;-49
2022/01/13 03:10:13;;;;;;;0.50;0.50;;;;;;;;;;4417292;32;20399;-52
2022/01/13 03:12:45;;;;;;;0.70;0.70;;;;;;;;;;4410431;32;20018;-51
2022/01/13 03:15:13;;;;;;;0.70;0.70;;;;;;;;;;4413044;32;20038;-49
2022/01/13 03:17:42;;;;;;;0.60;0.60;;;;;;;;;;4402348;32;20065;-51
2022/01/13 03:20:11;;;;;;;1.05;0.70;;;;;;;;;;4409198;32;20057;-55
2022/01/13 03:22:39;;;;;;;0.60;0.60;;;;;;;;;;4405514;32;20105;-52
2022/01/13 03:25:09;;;;;;;0.52;0.52;;;;;;;;;;4412475;32;20463;-50
2022/01/13 03:27:37;;;;;;;0.60;0.60;;;;;;;;;;4410103;32;20048;-49
2022/01/13 03:30:07;;;;;;;0.70;0.70;;;;;;;;;;4409545;32;20031;-50
2022/01/13 03:32:36;;;;;;;0.50;0.50;;;;;;;;;;4409230;32;20047;-49
2022/01/13 03:35:05;;;;;;;0.52;0.52;;;;;;;;;;4419012;32;20034;-51
2022/01/13 03:37:34;;;;;;;0.65;0.65;;;;;;;;;;4416915;32;20112;-50
2022/01/13 03:40:03;;;;;;;0.80;0.80;;;;;;;;;;4408471;32;20095;-50
2022/01/13 03:42:32;;;;;;;0.57;0.57;;;;;;;;;;4406289;32;20027;-50
2022/01/13 03:45:00;;;;;;;0.68;0.68;;;;;;;;;;4417543;32;20029;-49
2022/01/13 03:47:29;;;;;;;0.70;0.70;;;;;;;;;;4411283;32;20077;-50
2022/01/13 03:49:57;;;;;;;0.70;0.70;;;;;;;;;;4407058;32;21377;-50
2022/01/13 03:52:25;;;;;;;0.62;0.62;;;;;;;;;;4410021;32;20062;-51
2022/01/13 03:55:12;;;;;;;0.60;0.60;;;;;;;;;;4406457;32;20087;-51
2022/01/13 03:57:50;;;;;;;0.62;0.62;;;;;;;;;;4408684;32;20144;-52
2022/01/13 04:00:41;;;;;;;0.50;0.50;;;;;;;;;;4403714;32;20402;-51
2022/01/13 04:03:10;;;;;;;0.60;0.60;;;;;;;;;;4406318;32;20038;-50
2022/01/13 04:05:57;;;;;;;0.70;0.70;;;;;;;;;;4409871;32;20042;-49
2022/01/13 04:08:26;;;;;;;0.70;0.70;;;;;;;;;;4407449;32;20046;-51
2022/01/13 04:11:11;;;;;;;0.65;0.65;;;;;;;;;;4403531;32;20501;-49
2022/01/13 04:14:13;;;;;;;0.73;0.70;;;;;;;;;;4413105;32;20074;-50
2022/01/13 04:16:36;;;;;;;0.68;0.68;;;;;;;;;;4410462;32;20091;-50
2022/01/13 04:19:06;;;;;;;0.60;0.60;;;;;;;;;;4408690;32;20064;-49
2022/01/13 04:21:35;;;;;;;0.80;0.80;;;;;;;;;;4406822;32;20087;-50
2022/01/13 04:24:04;;;;;;;0.60;0.60;;;;;;;;;;4401928;32;20090;-53
2022/01/13 04:26:34;;;;;;;1.02;0.60;;;;;;;;;;4410563;32;20035;-51
2022/01/13 04:30:00;;;;;;;0.60;0.60;;;;;;;;;;4398726;32;20043;-50
2022/01/13 04:31:52;;;;;;;0.60;0.60;;;;;;;;;;4409472;32;20038;-49
2022/01/13 04:34:22;;;;;;;0.68;0.68;;;;;;;;;;4414468;32;20349;-50
2022/01/13 04:36:51;;;;;;;0.70;0.70;;;;;;;;;;4408785;32;20081;-50
2022/01/13 04:39:20;;;;;;;0.70;0.70;;;;;;;;;;4400214;32;20070;-52
2022/01/13 04:41:48;;;;;;;0.60;0.60;;;;;;;;;;4405041;32;20046;-51
2022/01/13 04:44:18;;;;;;;0.98;0.70;;;;;;;;;;4422070;32;20025;-51
2022/01/13 04:46:48;;;;;;;0.75;0.73;;;;;;;;;;4420521;32;20089;-51
2022/01/13 04:49:18;;;;;;;0.62;0.62;;;;;;;;;;4415699;32;20369;-49
2022/01/13 04:51:49;;;;;;;0.50;0.50;;;;;;;;;;4410264;32;20385;-51
2022/01/13 04:54:18;;;;;;;0.65;0.60;;;;;;;;;;4401031;32;20414;-50
2022/01/13 04:59:18;;;;;;;0.60;0.60;;;;;;;;;;4399691;32;20093;-50
2022/01/13 05:01:46;;;;;;;0.80;0.70;;;;;;;;;;4411240;32;20349;-52
2022/01/13 05:04:15;;;;;;;0.70;0.70;;;;;;;;;;4421582;32;20061;-49
2022/01/13 05:06:43;;;;;;;0.60;0.60;;;;;;;;;;4420435;32;20058;-49
2022/01/13 05:09:12;;;;;;;0.50;0.50;;;;;;;;;;4421836;32;20107;-50
2022/01/13 05:11:40;;;;;;;0.70;0.70;;;;;;;;;;4421458;32;20136;-51
2022/01/13 05:14:08;;;;;;;0.65;0.65;;;;;;;;;;4421398;32;20042;-50
2022/01/13 05:17:06;;;;;;;0.70;0.70;;;;;;;;;;4420580;32;20065;-51
2022/01/13 05:19:40;;;;;;;0.60;0.60;;;;;;;;;;4421540;32;20076;-52
2022/01/13 05:24:40;;;;;;;0.60;0.60;;;;;;;;;;4424146;32;20081;-50
2022/01/13 05:27:08;;;;;;;0.60;0.60;;;;;;;;;;4420975;32;20050;-52
2022/01/13 05:29:37;;;;;;;0.60;0.60;;;;;;;;;;4409028;32;20061;-49
2022/01/13 05:32:05;;;;;;;0.52;0.52;;;;;;;;;;4408431;32;20322;-52
2022/01/13 05:34:34;;;;;;;0.60;0.60;;;;;;;;;;4405494;32;20049;-51
2022/01/13 05:37:12;;;;;;;0.60;0.60;;;;;;;;;;4422427;32;20109;-50
2022/01/13 05:39:40;;;;;;;0.60;0.60;;;;;;;;;;4419543;32;20069;-49
2022/01/13 05:42:08;;;;;;;0.60;0.60;;;;;;;;;;4423587;32;20042;-53
2022/01/13 05:44:38;;;;;;;0.50;0.50;;;;;;;;;;4422023;32;20458;-50
2022/01/13 05:47:08;;;;;;;0.60;0.60;;;;;;;;;;4411562;32;20106;-50
2022/01/13 05:49:38;;;;;;;0.80;0.80;;;;;;;;;;4408540;32;20031;-50
2022/01/13 05:52:10;;;;;;;0.70;0.70;;;;;;;;;;4423184;32;20425;-49
2022/01/13 05:54:39;;;;;;;0.62;0.62;;;;;;;;;;4423708;32;20095;-49
2022/01/13 05:57:09;;;;;;;0.60;0.60;;;;;;;;;;4422498;32;20173;-50
2022/01/13 05:59:37;;;;;;;0.60;0.60;;;;;;;;;;4422194;32;20105;-51
2022/01/13 06:02:06;;;;;;;0.60;0.60;;;;;;;;;;4423874;32;20402;-50
2022/01/13 06:04:35;;;;;;;0.62;0.62;;;;;;;;;;4423377;32;20038;-53
2022/01/13 06:07:03;;;;;;;0.60;0.60;;;;;;;;;;4424092;32;20030;-50
2022/01/13 06:09:31;;;;;;;0.70;0.60;;;;;;;;;;4420356;32;20118;-50
2022/01/13 06:12:03;;;;;;;0.70;0.70;;;;;;;;;;4420706;32;20057;-51
2022/01/13 06:14:31;;;;;;;0.60;0.60;;;;;;;;;;4406077;32;20230;-52
2022/01/13 06:16:59;;;;;;;0.60;0.60;;;;;;;;;;4411671;32;20038;-52
2022/01/13 06:19:27;;;;;;;0.62;0.62;;;;;;;;;;4423786;32;20433;-50
2022/01/13 06:21:56;;;;;;;0.60;0.60;;;;;;;;;;4422992;32;20418;-49
2022/01/13 06:24:24;;;;;;;0.50;0.50;;;;;;;;;;4417340;32;20038;-51
2022/01/13 06:26:53;;;;;;;0.52;0.52;;;;;;;;;;4407237;32;20410;-53
2022/01/13 06:29:21;;;;;;;0.52;0.52;;;;;;;;;;4408140;32;20420;-52
2022/01/13 06:31:49;;;;;;;0.60;0.50;;;;;;;;;;4407633;32;20427;-50
2022/01/13 06:34:18;;;;;;;0.60;0.60;;;;;;;;;;4407793;32;20039;-51
2022/01/13 06:36:46;;;;;;;0.60;0.60;;;;;;;;;;4407649;32;20105;-50
2022/01/13 06:39:14;;;;;;;0.50;0.50;;;;;;;;;;4408132;32;20320;-51
2022/01/13 06:41:44;;;;;;;0.57;0.57;;;;;;;;;;4407217;32;20074;-51
2022/01/13 06:44:13;;;;;;;0.50;0.50;;;;;;;;;;4403382;32;20094;-50
2022/01/13 06:46:42;;;;;;;0.50;0.50;;;;;;;;;;4407749;32;20100;-51
2022/01/13 06:49:10;;;;;;;0.50;0.50;;;;;;;;;;4408063;32;20364;-50
2022/01/13 06:51:38;;;;;;;0.52;0.52;;;;;;;;;;4413905;32;20099;-49
2022/01/13 06:54:07;;;;;;;0.57;0.57;;;;;;;;;;4410711;32;20087;-49
2022/01/13 06:56:35;;;;;;;0.70;0.70;;;;;;;;;;4411791;32;20080;-50
2022/01/13 06:59:09;;;;;;;0.60;0.60;;;;;;;;;;4408167;32;20102;-52
2022/01/13 07:01:39;;;;;;;0.65;0.65;;;;;;;;;;4416477;32;20066;-49
2022/01/13 07:04:12;;;;;;;0.75;0.57;;;;;;;;;;4415126;32;20076;-51
2022/01/13 07:06:42;;;;;;;0.70;0.60;;;;;;;;;;4413526;32;20081;-50
2022/01/13 07:09:15;;;;;;;0.50;0.50;;;;;;;;;;4407703;32;20194;-50
2022/01/13 07:11:44;;;;;;;0.50;0.50;;;;;;;;;;4407930;32;20464;-49
2022/01/13 07:14:12;;;;;;;0.50;0.50;;;;;;;;;;4405422;32;20093;-50
2022/01/13 07:16:41;;;;;;;0.60;0.60;;;;;;;;;;4408859;32;20031;-50
2022/01/13 07:19:11;;;;;;;3.33;0.50;;;;;;;;;;4407279;32;20030;-50
2022/01/13 07:21:43;;;;;;;1.05;0.43;;;;;;;;;;4408270;32;20046;-49
2022/01/13 07:24:12;;;;;;;0.60;0.60;;;;;;;;;;4405624;32;20082;-53
2022/01/13 07:26:40;;;;;;;0.50;0.50;;;;;;;;;;4412395;32;20049;-50
2022/01/13 07:29:09;;;;;;;1.20;0.57;;;;;;;;;;4409579;32;20064;-51
2022/01/13 07:31:38;;;;;;;0.50;0.50;;;;;;;;;;4408205;32;20408;-49
2022/01/13 07:34:07;;;;;;;1.30;0.60;;;;;;;;;;4416987;32;20451;-49
2022/01/13 07:36:37;;;;;;;0.50;0.50;;;;;;;;;;4414225;32;20098;-49
2022/01/13 07:39:07;;;;;;;0.40;0.40;;;;;;;;;;4414216;32;20057;-50
2022/01/13 07:41:37;;;;;;;0.85;0.55;;;;;;;;;;4415700;32;20060;-52
2022/01/13 07:44:06;;;;;;;0.57;0.40;;;;;;;;;;4411752;32;20035;-50
2022/01/13 07:46:35;;;;;;;1.77;0.55;;;;;;;;;;4412376;32;20068;-50
2022/01/13 07:49:03;;;;;;;0.50;0.50;;;;;;;;;;4413623;32;21019;-49
2022/01/13 07:51:31;;;;;;;0.60;0.60;;;;;;;;;;4414545;32;20073;-49
2022/01/13 07:54:01;;;;;;;0.68;0.57;;;;;;;;;;4409653;32;20385;-49
2022/01/13 07:56:29;;;;;;;0.43;0.43;;;;;;;;;;4404909;32;20034;-49
2022/01/13 07:58:58;;;;;;;0.50;0.50;;;;;;;;;;4410293;32;20429;-49
2022/01/13 08:01:26;;;;;;;0.40;0.40;;;;;;;;;;4404189;32;20097;-49
2022/01/13 08:03:55;;;;;;;0.50;0.50;;;;;;;;;;4414144;32;20038;-51
2022/01/13 08:06:23;;;;;;;0.55;0.50;;;;;;;;;;4407306;32;20392;-49
2022/01/13 08:08:51;;;;;;;0.50;0.50;;;;;;;;;;4412527;32;20037;-51
2022/01/13 08:11:20;;;;;;;0.60;0.60;;;;;;;;;;4407115;32;20377;-50
2022/01/13 08:13:49;;;;;;;0.60;0.43;;;;;;;;;;4416109;32;20046;-50
2022/01/13 08:16:19;;;;;;;0.45;0.45;;;;;;;;;;4403163;32;20042;-49
2022/01/13 08:21:35;;;;;;;0.40;0.40;;;;;;;;;;4402323;32;20046;-50
2022/01/13 08:24:04;;;;;;;0.75;0.50;;;;;;;;;;4411643;32;20038;-52
2022/01/13 08:26:33;;;;;;;0.45;0.45;;;;;;;;;;4406010;32;20489;-52
2022/01/13 08:29:01;;;;;;;0.60;0.60;;;;;;;;;;4405515;32;20027;-51
2022/01/13 08:31:30;;;;;;;0.50;0.50;;;;;;;;;;4414824;32;20030;-52
2022/01/13 08:33:58;;;;;;;1.02;0.50;;;;;;;;;;4410851;32;20054;-51
2022/01/13 08:36:27;;;;;;;1.02;0.50;;;;;;;;;;4413325;32;20089;-49
2022/01/13 08:38:55;;;;;;;0.73;0.60;;;;;;;;;;4412554;32;20414;-51
2022/01/13 08:41:24;;;;;;;0.70;0.60;;;;;;;;;;4400332;32;20096;-50
2022/01/13 08:43:53;;;;;;;1.08;0.50;;;;;;;;;;4410407;32;20051;-52
2022/01/13 08:46:23;;;;;;;1.40;0.50;;;;;;;;;;4408950;32;20046;-49
2022/01/13 08:48:53;;;;;;;0.47;0.47;;;;;;;;;;4408620;32;20095;-50
2022/01/13 08:51:21;;;;;;;0.50;0.50;;;;;;;;;;4409959;32;20034;-51
2022/01/13 08:53:50;;;;;;;0.50;0.50;;;;;;;;;;4414410;32;20452;-52
2022/01/13 08:56:19;;;;;;;0.43;0.43;;;;;;;;;;4406055;32;20047;-49
2022/01/13 08:58:47;;;;;;;0.50;0.50;;;;;;;;;;4410676;32;20098;-49
2022/01/13 09:01:15;;;;;;;0.60;0.60;;;;;;;;;;4416427;32;20026;-50
2022/01/13 09:03:44;;;;;;;0.50;0.50;;;;;;;;;;4415329;32;20125;-50
2022/01/13 09:06:12;;;;;;;0.40;0.40;;;;;;;;;;4414181;32;20124;-49
2022/01/13 09:08:41;;;;;;;0.55;0.55;;;;;;;;;;4422222;32;20373;-50
2022/01/13 09:11:09;;;;;;;0.50;0.50;;;;;;;;;;4415520;32;20042;-50
2022/01/13 09:13:38;;;;;;;0.40;0.40;;;;;;;;;;4410821;32;20088;-50
2022/01/13 09:16:15;;;;;;;0.50;0.50;;;;;;;;;;4414207;32;20035;-51
2022/01/13 09:21:26;;;;;;;0.43;0.43;;;;;;;;;;4409008;32;20050;-50
2022/01/13 09:23:54;;;;;;;0.80;0.47;;;;;;;;;;4407561;32;20464;-51
2022/01/13 09:26:22;;;;;;;0.60;0.50;;;;;;;;;;4406629;32;20142;-49
2022/01/13 09:28:52;;;;;;;0.45;0.45;;;;;;;;;;4409086;32;20031;-49
2022/01/13 09:31:20;;;;;;;2.45;0.70;;;;;;;;;;4410979;32;20107;-49
2022/01/13 09:33:49;;;;;;;0.50;0.50;;;;;;;;;;4414608;32;20472;-51
2022/01/13 09:36:18;;;;;;;0.77;0.50;;;;;;;;;;4408686;32;20415;-49
2022/01/13 09:38:50;;;;;;;0.40;0.40;;;;;;;;;;4416112;32;20060;-52
2022/01/13 09:41:19;;;;;;;2.53;0.50;;;;;;;;;;4408461;32;20421;-49
2022/01/13 09:43:47;;;;;;;0.60;0.50;;;;;;;;;;4410465;32;20038;-49
2022/01/13 09:46:15;;;;;;;0.43;0.43;;;;;;;;;;4409018;32;20080;-49
2022/01/13 09:48:46;;;;;;;0.40;0.40;;;;;;;;;;4413462;32;20034;-51
2022/01/13 09:51:14;;;;;;;0.50;0.50;;;;;;;;;;4413582;32;20046;-52
2022/01/13 09:53:42;;;;;;;0.62;0.50;;;;;;;;;;4412339;32;20099;-49
2022/01/13 09:56:12;;;;;;;0.55;0.50;;;;;;;;;;4407256;32;20085;-48
2022/01/13 09:58:43;;;;;;;0.50;0.50;;;;;;;;;;4415296;32;20037;-49
2022/01/13 10:01:13;;;;;;;0.55;0.52;;;;;;;;;;4410244;32;20054;-49
2022/01/13 10:03:42;;;;;;;0.50;0.50;;;;;;;;;;4407509;32;20027;-50
2022/01/13 10:06:11;;;;;;;0.40;0.40;;;;;;;;;;4409598;32;20433;-49
2022/01/13 10:08:44;;;;;;;0.75;0.55;;;;;;;;;;4405744;32;20034;-50
2022/01/13 10:11:13;;;;;;;;;;;;;;;;;;4409924;32;20111;-49
2022/01/13 10:13:51;;;;;;;1.05;0.50;;;;;;;;;;4412634;32;19945;-48
2022/01/13 10:16:28;;;;;;;1.08;0.65;;;;;;;;;;4407689;32;20035;-49
2022/01/13 10:18:56;;;;;;;0.90;0.60;;;;;;;;;;4409949;32;20047;-50
2022/01/13 10:21:25;;;;;;;0.75;0.50;;;;;;;;;;4408929;32;20042;-50
2022/01/13 10:24:01;;;;;;;1.02;0.50;;;;;;;;;;4410881;32;20104;-51
2022/01/13 10:26:31;;;;;;;0.50;0.50;;;;;;;;;;4416957;32;20487;-49
2022/01/13 10:28:59;;;;;;;0.88;0.65;;;;;;;;;;4408301;32;20038;-51
2022/01/13 10:31:44;;;;;;;0.70;0.60;;;;;;;;;;4406984;32;20035;-49
2022/01/13 10:34:20;;;;;;;0.82;0.70;;;;;;;;;;4417627;32;20041;-51
2022/01/13 10:37:03;;;;;;;0.60;0.60;;;;;;;;;;4413009;32;20072;-50
2022/01/13 10:39:49;;;;;;;0.90;0.62;;;;;;;;;;4405470;32;20423;-52
2022/01/13 10:45:08;;;;;;;0.88;0.80;;;;;;;;;;4405022;32;20064;-49
2022/01/13 10:47:37;;;;;;;0.73;0.62;;;;;;;;;;4410180;32;20050;-50
2022/01/13 10:50:07;;;;;;;0.73;0.52;;;;;;;;;;4409602;32;20061;-50
2022/01/13 10:52:36;;;;;;;0.70;0.70;;;;;;;;;;4410879;32;20077;-53
2022/01/13 10:55:10;;;;;;;0.60;0.60;;;;;;;;;;4406862;32;20071;-49
2022/01/13 10:57:59;;;;;;;1.12;0.60;;;;;;;;;;4408161;32;20097;-50
2022/01/13 11:00:29;;;;;;;0.70;0.70;;;;;;;;;;4411110;32;20070;-53
2022/01/13 11:03:00;;;;;;;0.93;0.80;;;;;;;;;;4409318;32;20101;-49
2022/01/13 11:05:30;;;;;;;0.73;0.57;;;;;;;;;;4404885;32;20061;-53
2022/01/13 11:07:58;;;;;;;0.60;0.60;;;;;;;;;;4407770;32;20413;-49
2022/01/13 11:10:26;;;;;;;0.93;0.77;;;;;;;;;;4411703;32;20405;-49
2022/01/13 11:13:00;;;;;;;0.90;0.77;;;;;;;;;;4415985;32;20456;-49
2022/01/13 11:15:29;;;;;;;0.80;0.80;;;;;;;;;;4412105;32;20387;-50
2022/01/13 11:17:59;;;;;;;0.80;0.70;;;;;;;;;;4404777;32;20030;-49
2022/01/13 11:20:28;;;;;;;0.75;0.75;;;;;;;;;;4408396;32;20053;-50
2022/01/13 11:22:57;;;;;;;1.25;0.90;;;;;;;;;;4405922;32;20034;-49
2022/01/13 11:25:26;;;;;;;2.25;1.00;;;;;;;;;;4405269;32;20054;-49
2022/01/13 11:27:57;;;;;;;1.12;1.00;;;;;;;;;;4411340;32;20368;-50
2022/01/13 11:30:27;;;;;;;0.95;0.77;;;;;;;;;;4414673;32;20061;-49
2022/01/13 11:32:56;;;;;;;2.47;1.02;;;;;;;;;;4418186;32;20027;-49
2022/01/13 11:35:27;;;;;;;1.60;0.90;;;;;;;;;;4401505;32;20070;-49
2022/01/13 11:37:56;;;;;;;0.82;0.80;;;;;;;;;;4409829;32;20073;-52
2022/01/13 11:40:27;;;;;;;2.37;0.80;;;;;;;;;;4408856;32;20062;-48
2022/01/13 11:43:00;;;;;;;1.05;0.80;;;;;;;;;;4406199;32;20042;-50
2022/01/13 11:45:29;;;;;;;2.05;0.80;;;;;;;;;;4410606;32;20436;-51
2022/01/13 11:48:15;;;;;;;1.15;0.90;;;;;;;;;;4409257;32;20073;-50
2022/01/13 11:50:55;;;;;;;1.00;0.90;;;;;;;;;;4412982;32;20085;-49
2022/01/13 11:53:31;;;;;;;1.73;0.82;;;;;;;;;;4411650;32;20542;-49
2022/01/13 11:56:01;;;;;;;0.70;0.70;;;;;;;;;;4410503;32;20413;-50
2022/01/13 11:58:47;;;;;;;2.15;0.95;;;;;;;;;;4406102;32;20039;-49
2022/01/13 12:01:32;;;;;;;2.65;0.90;;;;;;;;;;4410449;32;20051;-49
2022/01/13 12:04:03;;;;;;;1.17;0.98;;;;;;;;;;4404861;32;20034;-52
2022/01/13 12:06:35;;;;;;;0.85;0.70;;;;;;;;;;4402541;32;20124;-53
2022/01/13 12:09:33;;;;;;;1.02;0.82;;;;;;;;;;4406530;32;20081;-50
2022/01/13 12:12:01;;;;;;;1.75;0.90;;;;;;;;;;4411166;32;20068;-50
2022/01/13 12:14:32;;;;;;;0.93;0.82;;;;;;;;;;4408308;32;20365;-51
2022/01/13 12:17:04;;;;;;;1.73;1.00;;;;;;;;;;4412004;32;20373;-53
2022/01/13 12:19:38;;;;;;;0.90;0.90;;;;;;;;;;4407827;32;20074;-49
2022/01/13 12:22:12;;;;;;;2.37;1.00;;;;;;;;;;4403205;32;20091;-50
2022/01/13 12:24:50;;;;;;;3.42;1.00;;;;;;;;;;4404163;32;20035;-52
2022/01/13 12:27:20;;;;;;;1.30;0.90;;;;;;;;;;4411545;32;20076;-49
2022/01/13 12:29:50;;;;;;;2.35;0.90;;;;;;;;;;4409036;32;20053;-49
2022/01/13 12:32:33;;;;;;;2.40;1.20;;;;;;;;;;4405144;32;20065;-49
2022/01/13 12:35:04;;;;;;;2.07;1.07;;;;;;;;;;4404591;32;20026;-49
2022/01/13 12:37:32;;;;;;;3.10;1.12;;;;;;;;;;4406774;32;20057;-49
2022/01/13 12:40:09;;;;;;;2.67;1.23;;;;;;;;;;4412311;32;20051;-49
2022/01/13 12:42:39;;;;;;;2.45;1.35;;;;;;;;;;4407162;32;20084;-49
2022/01/13 12:48:02;;;;;;;4.62;1.20;;;;;;;;;;4411203;32;20040;-49
2022/01/13 12:50:41;;;;;;;2.95;1.27;;;;;;;;;;4406843;32;20558;-49
2022/01/13 12:53:15;;;;;;;1.35;1.20;;;;;;;;;;4408107;32;20091;-49
2022/01/13 12:55:54;;;;;;;1.30;1.20;;;;;;;;;;4413136;32;20061;-49
2022/01/13 12:58:23;;;;;;;2.47;1.35;;;;;;;;;;4415001;32;20064;-49
2022/01/13 13:01:07;;;;;;;1.95;1.17;;;;;;;;;;4410888;32;20042;-53
2022/01/13 13:03:36;;;;;;;2.85;1.27;;;;;;;;;;4411453;32;20063;-53
2022/01/13 13:06:12;;;;;;;2.08;1.20;;;;;;;;;;4402966;32;20041;-49
2022/01/13 13:08:49;;;;;;;1.40;1.30;;;;;;;;;;4407829;32;20066;-49
2022/01/13 13:11:18;;;;;;;2.78;1.25;;;;;;;;;;4409190;32;20046;-49
2022/01/13 13:13:52;;;;;;;2.33;1.12;;;;;;;;;;4409207;32;20089;-50
2022/01/13 13:16:22;;;;;;;1.50;1.20;;;;;;;;;;4403065;32;20045;-49
2022/01/13 13:18:52;;;;;;;2.37;1.15;;;;;;;;;;4414432;32;20075;-49
2022/01/13 13:21:20;;;;;;;1.33;1.20;;;;;;;;;;4415653;32;20080;-49
2022/01/13 13:23:50;;;;;;;2.08;1.10;;;;;;;;;;4417563;32;20046;-50
2022/01/13 13:26:21;;;;;;;2.28;1.40;;;;;;;;;;4413814;32;20034;-50
2022/01/13 13:28:51;;;;;;;1.58;1.40;;;;;;;;;;4403868;32;20112;-51
2022/01/13 13:31:40;;;;;;;2.15;1.15;;;;;;;;;;4406382;32;20035;-51
2022/01/13 13:34:14;;;;;;;1.52;1.30;;;;;;;;;;4403876;32;20042;-52
2022/01/13 13:36:44;;;;;;;1.87;1.20;;;;;;;;;;4403332;32;20072;-50
2022/01/13 13:39:17;;;;;;;2.40;1.30;;;;;;;;;;4408351;32;20025;-51
2022/01/13 13:41:48;;;;;;;2.20;1.20;;;;;;;;;;4415836;32;20057;-50
2022/01/13 13:44:27;;;;;;;1.50;1.30;;;;;;;;;;4412688;32;20039;-52
2022/01/13 13:47:03;;;;;;;2.10;1.30;;;;;;;;;;4412097;32;20054;-51
2022/01/13 13:49:31;;;;;;;5.78;1.30;;;;;;;;;;4409370;32;20043;-51
2022/01/13 13:52:01;;;;;;;2.17;1.08;;;;;;;;;;4415635;32;20053;-53
2022/01/13 13:54:35;;;;;;;3.20;1.40;;;;;;;;;;4417515;32;20046;-49
2022/01/13 13:57:06;;;;;;;3.10;1.40;;;;;;;;;;4408054;32;20038;-50
2022/01/13 13:59:42;;;;;;;3.25;1.40;;;;;;;;;;4413808;32;20492;-51
2022/01/13 14:02:11;;;;;;;2.45;1.37;;;;;;;;;;4405513;32;20027;-50
2022/01/13 14:04:49;;;;;;;3.53;1.77;;;;;;;;;;4407983;32;20054;-50
2022/01/13 14:07:30;;;;;;;3.50;1.42;;;;;;;;;;4401981;32;20430;-54
2022/01/13 14:09:58;;;;;;;2.55;1.92;;;;;;;;;;4415087;32;20083;-50
2022/01/13 14:12:32;;;;;;;2.85;1.30;;;;;;;;;;4411251;32;20034;-51
2022/01/13 14:15:29;;;;;;;3.75;1.50;;;;;;;;;;4420436;32;20065;-51
2022/01/13 14:18:20;;;;;;;1.65;1.42;;;;;;;;;;4410542;32;20372;-53
2022/01/13 14:20:48;;;;;;;1.30;1.20;;;;;;;;;;4412079;32;20057;-50
2022/01/13 14:23:26;;;;;;;4.18;1.20;;;;;;;;;;4407472;32;20049;-51
2022/01/13 14:26:07;;;;;;;2.37;1.48;;;;;;;;;;4406259;32;20465;-48
2022/01/13 14:28:36;;;;;;;1.60;1.30;;;;;;;;;;4415369;32;20058;-49
2022/01/13 14:31:09;;;;;;;1.80;1.40;;;;;;;;;;4410360;32;20264;-49
2022/01/13 14:33:45;;;;;;;2.30;1.40;;;;;;;;;;4408608;32;20037;-51
2022/01/13 14:36:19;;;;;;;2.65;1.50;;;;;;;;;;4416296;32;20374;-50
2022/01/13 14:38:51;;;;;;;1.90;1.58;;;;;;;;;;4410645;32;20093;-49
2022/01/13 14:41:35;;;;;;;2.22;1.40;;;;;;;;;;4408137;32;20042;-48
2022/01/13 14:44:19;;;;;;;3.15;1.55;;;;;;;;;;4416454;32;20357;-49
2022/01/13 14:46:53;;;;;;;2.37;1.30;;;;;;;;;;4415215;32;20113;-49
2022/01/13 14:49:27;;;;;;;3.10;1.40;;;;;;;;;;4403865;32;20055;-51
2022/01/13 14:51:58;;;;;;;3.25;1.40;;;;;;;;;;4412093;32;20056;-49
2022/01/13 14:54:26;;;;;;;3.03;1.27;;;;;;;;;;4406889;32;20125;-58
2022/01/13 14:56:55;;;;;;;1.40;1.30;;;;;;;;;;4402433;32;20108;-49
2022/01/13 14:59:26;;;;;;;1.87;1.25;;;;;;;;;;4412102;32;20368;-49
2022/01/13 15:01:55;;;;;;;2.00;1.45;;;;;;;;;;4410877;32;20480;-50
2022/01/13 15:04:24;;;;;;;2.78;1.50;;;;;;;;;;4413790;32;20076;-49
2022/01/13 15:06:52;;;;;;;1.77;1.40;;;;;;;;;;4409304;32;20050;-49
2022/01/13 15:09:20;;;;;;;2.22;1.40;;;;;;;;;;4407268;32;20124;-51
2022/01/13 15:11:49;;;;;;;3.05;1.67;;;;;;;;;;4412661;32;20038;-49
2022/01/13 15:14:18;;;;;;;2.33;1.40;;;;;;;;;;4409851;32;20038;-50
2022/01/13 15:16:46;;;;;;;1.62;1.52;;;;;;;;;;4409378;32;20042;-48
2022/01/13 15:19:16;;;;;;;3.37;1.25;;;;;;;;;;4410895;32;20074;-48
2022/01/13 15:21:44;;;;;;;2.20;1.58;;;;;;;;;;4408833;32;20410;-48
2022/01/13 15:24:14;;;;;;;2.58;1.55;;;;;;;;;;4408663;32;20072;-48
2022/01/13 15:26:43;;;;;;;2.67;1.62;;;;;;;;;;4404764;32;20092;-48
2022/01/13 15:29:11;;;;;;;2.15;1.52;;;;;;;;;;4405367;32;20470;-48
2022/01/13 15:31:39;;;;;;;2.60;1.60;;;;;;;;;;4408686;32;20148;-48
2022/01/13 15:34:08;;;;;;;3.10;1.60;;;;;;;;;;4405201;32;20039;-52
2022/01/13 15:36:36;;;;;;;2.80;1.65;;;;;;;;;;4402885;32;20080;-48
2022/01/13 15:39:04;;;;;;;3.12;1.70;;;;;;;;;;4409833;32;20014;-49